createdAt,value
2023-05-12T00:00:09.928Z,97321.75
2023-05-12T00:02:36.594Z,97325.81
2023-05-12T00:05:04.409Z,97317.81
2023-05-12T00:07:31.000Z,97312.00
2023-05-12T00:09:57.528Z,97326.16
2023-05-12T00:12:24.071Z,97326.38
2023-05-12T00:14:50.683Z,97321.75
2023-05-12T00:17:17.340Z,97325.03
2023-05-12T00:19:44.332Z,97316.06
2023-05-12T00:22:11.697Z,97321.03
2023-05-12T00:24:38.405Z,97321.75
2023-05-12T00:27:05.578Z,97322.56
2023-05-12T00:29:33.608Z,97316.31
2023-05-12T00:32:00.445Z,97323.28
2023-05-12T00:34:30.201Z,97314.00
2023-05-12T00:36:56.964Z,97315.63
2023-05-12T00:39:23.728Z,97318.03
2023-05-12T00:41:58.266Z,97318.28
2023-05-12T00:44:24.939Z,97314.09
2023-05-12T00:46:52.806Z,97317.47
2023-05-12T00:49:23.276Z,97308.53
2023-05-12T00:51:50.360Z,97315.72
2023-05-12T00:54:17.316Z,97310.06
2023-05-12T00:56:43.985Z,97311.78
2023-05-12T00:59:10.879Z,97316.47
2023-05-12T01:01:38.053Z,97310.94
2023-05-12T01:04:05.020Z,97309.81
2023-05-12T01:06:49.580Z,97310.22
2023-05-12T01:09:16.606Z,97308.78
2023-05-12T01:11:43.180Z,97314.09
2023-05-12T01:14:09.758Z,97311.78
2023-05-12T01:16:48.309Z,97307.84
2023-05-12T01:19:34.777Z,97310.22
2023-05-12T01:22:01.565Z,97310.34
2023-05-12T01:24:31.043Z,97308.53
2023-05-12T01:26:59.232Z,97305.19
2023-05-12T01:29:26.535Z,97302.38
2023-05-12T01:31:53.481Z,97307.50
2023-05-12T01:34:20.856Z,97311.78
2023-05-12T01:36:47.485Z,97307.84
2023-05-12T01:39:14.324Z,97302.72
2023-05-12T01:41:41.244Z,97294.91
2023-05-12T01:44:08.285Z,97300.66
2023-05-12T01:46:35.145Z,97303.06
2023-05-12T01:49:01.695Z,97303.41
2023-05-12T01:51:28.357Z,97303.91
2023-05-12T01:53:54.963Z,97306.22
2023-05-12T01:56:22.050Z,97303.13
2023-05-12T01:58:48.778Z,97301.03
2023-05-12T02:01:15.488Z,97300.16
2023-05-12T02:03:42.531Z,97306.41
2023-05-12T02:06:09.597Z,97309.38
2023-05-12T02:08:36.265Z,97310.94
2023-05-12T02:11:07.332Z,97306.31
2023-05-12T02:13:35.048Z,97305.53
2023-05-12T02:16:02.326Z,97308.53
2023-05-12T02:18:28.932Z,97303.56
2023-05-12T02:20:55.782Z,97302.72
2023-05-12T02:23:22.548Z,97296.81
2023-05-12T02:25:49.100Z,97295.63
2023-05-12T02:28:15.986Z,97293.72
2023-05-12T02:30:48.872Z,97298.09
2023-05-12T02:33:25.300Z,97299.63
2023-05-12T02:35:51.855Z,97295.19
2023-05-12T02:38:18.427Z,97291.41
2023-05-12T02:40:46.680Z,97292.09
2023-05-12T02:43:13.451Z,97291.75
2023-05-12T02:45:40.506Z,97294.41
2023-05-12T02:48:07.421Z,97296.03
2023-05-12T02:50:34.018Z,97296.88
2023-05-12T02:53:00.905Z,97291.69
2023-05-12T02:55:30.334Z,97285.84
2023-05-12T02:57:57.441Z,97289.72
2023-05-12T03:00:24.057Z,97285.00
2023-05-12T03:02:50.690Z,97287.41
2023-05-12T03:05:17.580Z,97291.25
2023-05-12T03:07:44.117Z,97287.47
2023-05-12T03:10:10.910Z,97289.88
2023-05-12T03:12:37.708Z,97283.97
2023-05-12T03:15:05.072Z,97287.41
2023-05-12T03:17:31.712Z,97287.81
2023-05-12T03:19:58.331Z,97290.44
2023-05-12T03:22:25.182Z,97294.38
2023-05-12T03:24:52.033Z,97288.47
2023-05-12T03:27:18.856Z,97291.97
2023-05-12T03:29:46.048Z,97285.38
2023-05-12T03:32:13.148Z,97297.03
2023-05-12T03:34:41.204Z,97289.56
2023-05-12T03:37:08.032Z,97284.53
2023-05-12T03:39:34.567Z,97285.78
2023-05-12T03:42:01.162Z,97281.50
2023-05-12T03:44:27.712Z,97281.16
2023-05-12T03:46:54.329Z,97281.09
2023-05-12T03:49:20.900Z,97280.72
2023-05-12T03:51:47.536Z,97279.13
2023-05-12T03:54:14.091Z,97274.34
2023-05-12T03:56:40.651Z,97284.94
2023-05-12T03:59:07.242Z,97280.25
2023-05-12T04:01:34.537Z,97286.41
2023-05-12T04:04:01.502Z,97281.88
2023-05-12T04:06:28.126Z,97286.16
2023-05-12T04:08:54.787Z,97277.22
2023-05-12T04:11:21.414Z,97278.41
2023-05-12T04:13:47.931Z,97275.53
2023-05-12T04:16:16.797Z,97281.88
2023-05-12T04:18:43.472Z,97285.59
2023-05-12T04:21:10.172Z,97287.34
2023-05-12T04:23:36.792Z,97285.66
2023-05-12T04:26:05.602Z,97291.97
2023-05-12T04:28:32.297Z,97292.31
2023-05-12T04:31:05.450Z,97292.53
2023-05-12T04:33:32.013Z,97296.47
2023-05-12T04:35:59.021Z,97298.69
2023-05-12T04:38:28.855Z,97307.41
2023-05-12T04:40:59.484Z,97307.50
2023-05-12T04:45:57.037Z,97313.75
2023-05-12T04:48:26.927Z,97314.09
2023-05-12T04:50:53.474Z,97315.97
2023-05-12T04:53:20.089Z,97312.88
2023-05-12T04:55:46.807Z,97314.91
2023-05-12T04:58:16.273Z,97315.28
2023-05-12T05:00:43.304Z,97317.84
2023-05-12T05:03:10.125Z,97319.69
2023-05-12T05:05:36.747Z,97309.50
2023-05-12T05:08:03.321Z,97321.88
2023-05-12T05:10:29.928Z,97318.41
2023-05-12T05:12:56.763Z,97325.84
2023-05-12T05:15:23.732Z,97319.81
2023-05-12T05:17:50.693Z,97318.78
2023-05-12T05:20:17.754Z,97317.06
2023-05-12T05:22:44.420Z,97314.66
2023-05-12T05:25:11.320Z,97319.75
2023-05-12T05:27:38.965Z,97329.00
2023-05-12T05:30:09.383Z,97325.50
2023-05-12T05:32:37.267Z,97325.41
2023-05-12T05:35:04.118Z,97323.41
2023-05-12T05:37:30.871Z,97328.22
2023-05-12T05:39:57.598Z,97330.06
2023-05-12T05:42:24.407Z,97336.72
2023-05-12T05:44:51.009Z,97330.09
2023-05-12T05:47:17.624Z,97329.97
2023-05-12T05:49:44.452Z,97330.84
2023-05-12T05:52:11.061Z,97324.69
2023-05-12T05:54:37.676Z,97329.81
2023-05-12T05:57:04.629Z,97320.19
2023-05-12T05:59:31.263Z,97325.16
2023-05-12T06:01:58.422Z,97326.03
2023-05-12T06:04:25.180Z,97334.59
2023-05-12T06:06:51.808Z,97327.41
2023-05-12T06:09:18.413Z,97328.03
2023-05-12T06:11:44.946Z,97331.66
2023-05-12T06:14:11.907Z,97345.59
2023-05-12T06:16:38.648Z,97336.50
2023-05-12T06:19:05.349Z,97335.66
2023-05-12T06:21:32.405Z,97330.78
2023-05-12T06:23:59.190Z,97334.97
2023-05-12T06:26:25.864Z,97330.88
2023-05-12T06:28:52.435Z,97334.22
2023-05-12T06:31:21.744Z,97344.44
2023-05-12T06:33:48.442Z,97342.22
2023-05-12T06:36:15.318Z,97336.91
2023-05-12T06:38:41.910Z,97337.25
2023-05-12T06:41:08.571Z,97342.53
2023-05-12T06:43:35.221Z,97337.69
2023-05-12T06:46:02.190Z,97337.97
2023-05-12T06:48:31.785Z,97342.34
2023-05-12T06:50:58.383Z,97339.09
2023-05-12T06:53:25.685Z,97324.78
2023-05-12T06:55:54.024Z,97330.63
2023-05-12T06:58:22.290Z,97321.38
2023-05-12T07:00:49.170Z,97321.56
2023-05-12T07:03:16.015Z,97328.91
2023-05-12T07:05:42.937Z,97329.47
2023-05-12T07:08:09.792Z,97331.88
2023-05-12T07:10:38.062Z,97334.09
2023-05-12T07:13:04.735Z,97336.78
2023-05-12T07:15:32.958Z,97325.81
2023-05-12T07:17:59.809Z,97328.91
2023-05-12T07:20:26.448Z,97330.69
2023-05-12T07:22:54.884Z,97327.28
2023-05-12T07:25:22.161Z,97329.38
2023-05-12T07:27:49.370Z,97330.25
2023-05-12T07:30:16.681Z,97332.00
2023-05-12T07:32:43.395Z,97330.63
2023-05-12T07:35:10.650Z,97327.16
2023-05-12T07:37:37.360Z,97329.00
2023-05-12T07:40:04.887Z,97330.91
2023-05-12T07:42:31.596Z,97328.56
2023-05-12T07:44:58.328Z,97331.03
2023-05-12T07:47:25.165Z,97327.84
2023-05-12T07:49:51.998Z,97325.75
2023-05-12T07:52:18.559Z,97332.75
2023-05-12T07:54:45.157Z,97329.50
2023-05-12T07:57:11.722Z,97329.84
2023-05-12T07:59:38.520Z,97332.81
2023-05-12T08:02:05.107Z,97335.22
2023-05-12T08:04:34.721Z,97319.84
2023-05-12T08:07:01.356Z,97323.84
2023-05-12T08:09:27.922Z,97324.81
2023-05-12T08:11:54.632Z,97318.97
2023-05-12T08:14:22.783Z,97319.03
2023-05-12T08:16:49.551Z,97321.16
2023-05-12T08:19:16.275Z,97326.63
2023-05-12T08:21:43.219Z,97326.63
2023-05-12T08:24:10.071Z,97318.25
2023-05-12T08:26:36.621Z,97321.84
2023-05-12T08:29:05.078Z,97318.06
2023-05-12T08:31:32.445Z,97319.78
2023-05-12T08:34:09.172Z,97318.69
2023-05-12T08:36:36.867Z,97328.88
2023-05-12T08:39:03.505Z,97325.59
2023-05-12T08:41:49.032Z,97323.25
2023-05-12T08:44:16.021Z,97325.06
2023-05-12T08:46:43.668Z,97329.72
2023-05-12T08:49:12.642Z,97327.31
2023-05-12T08:51:40.799Z,97330.81
2023-05-12T08:54:09.381Z,97333.03
2023-05-12T08:59:09.621Z,97349.00
2023-05-12T09:01:37.073Z,97346.97
2023-05-12T09:04:07.284Z,97352.84
2023-05-12T09:06:34.015Z,97349.13
2023-05-12T09:09:00.754Z,97359.53
2023-05-12T09:11:27.380Z,97348.53
2023-05-12T09:14:06.691Z,97354.59
2023-05-12T09:16:37.138Z,97351.06
2023-05-12T09:19:06.811Z,97358.66
2023-05-12T09:21:34.386Z,97353.50
2023-05-12T09:24:06.659Z,97356.78
2023-05-12T09:26:52.696Z,97359.19
2023-05-12T09:29:30.867Z,97355.06
2023-05-12T09:32:00.493Z,97345.72
2023-05-12T09:34:30.626Z,97349.84
2023-05-12T09:37:02.532Z,97350.84
2023-05-12T09:39:29.196Z,97349.47
2023-05-12T09:41:56.313Z,97340.72
2023-05-12T09:44:24.548Z,97343.00
2023-05-12T09:46:52.196Z,97343.59
2023-05-12T09:49:25.959Z,97346.84
2023-05-12T09:51:59.482Z,97347.75
2023-05-12T09:54:27.776Z,97351.25
2023-05-12T09:57:00.921Z,97348.25
2023-05-12T09:59:31.767Z,97348.34
2023-05-12T10:02:02.879Z,97355.28
2023-05-12T10:04:39.524Z,97354.47
2023-05-12T10:07:10.362Z,97358.78
2023-05-12T10:09:39.494Z,97353.72
2023-05-12T10:12:06.582Z,97356.59
2023-05-12T10:14:38.862Z,97360.47
2023-05-12T10:17:07.143Z,97360.28
2023-05-12T10:19:35.629Z,97359.16
2023-05-12T10:22:02.177Z,97357.53
2023-05-12T10:24:28.890Z,97363.19
2023-05-12T10:26:57.868Z,97364.69
2023-05-12T10:29:30.487Z,97370.22
2023-05-12T10:31:58.115Z,97356.38
2023-05-12T10:34:31.141Z,97365.69
2023-05-12T10:36:58.421Z,97377.03
2023-05-12T10:39:29.912Z,97381.00
2023-05-12T10:42:08.896Z,97376.41
2023-05-12T10:44:37.023Z,97377.50
2023-05-12T10:47:14.036Z,97378.84
2023-05-12T10:49:42.004Z,97369.13
2023-05-12T10:52:12.172Z,97368.91
2023-05-12T10:54:44.883Z,97379.53
2023-05-12T10:57:20.423Z,97371.25
2023-05-12T10:59:52.990Z,97366.38
2023-05-12T11:02:27.553Z,97364.97
2023-05-12T11:05:00.225Z,97367.78
2023-05-12T11:07:30.856Z,97369.91
2023-05-12T11:10:01.642Z,97370.44
2023-05-12T11:12:32.892Z,97371.34
2023-05-12T11:15:01.686Z,97371.97
2023-05-12T11:17:29.065Z,97374.16
2023-05-12T11:19:55.912Z,97384.97
2023-05-12T11:22:24.089Z,97381.81
2023-05-12T11:24:52.996Z,97374.38
2023-05-12T11:27:23.300Z,97383.84
2023-05-12T11:29:58.560Z,97374.56
2023-05-12T11:32:25.181Z,97385.56
2023-05-12T11:34:51.793Z,97380.09
2023-05-12T11:37:21.661Z,97389.81
2023-05-12T11:39:48.525Z,97391.56
2023-05-12T11:42:18.586Z,97396.56
2023-05-12T11:44:50.204Z,97411.44
2023-05-12T11:47:19.145Z,97407.47
2023-05-12T11:49:55.921Z,97410.63
2023-05-12T11:52:24.870Z,97420.28
2023-05-12T11:55:00.301Z,97421.63
2023-05-12T11:57:32.200Z,97431.66
2023-05-12T12:00:00.945Z,97422.91
2023-05-12T12:02:28.319Z,97432.03
2023-05-12T12:04:55.389Z,97439.47
2023-05-12T12:07:36.026Z,97442.56
2023-05-12T12:10:16.900Z,97440.94
2023-05-12T12:12:44.916Z,97443.72
2023-05-12T12:15:12.446Z,97446.09
2023-05-12T12:17:40.236Z,97435.41
2023-05-12T12:20:08.468Z,97442.28
2023-05-12T12:22:35.433Z,97432.91
2023-05-12T12:25:03.114Z,97433.56
2023-05-12T12:27:30.086Z,97431.63
2023-05-12T12:29:56.723Z,97432.00
2023-05-12T12:32:23.518Z,97425.47
2023-05-12T12:34:50.244Z,97417.97
2023-05-12T12:37:17.305Z,97431.09
2023-05-12T12:39:44.407Z,97416.56
2023-05-12T12:42:10.954Z,97412.59
2023-05-12T12:44:37.563Z,97423.41
2023-05-12T12:47:05.127Z,97420.22
2023-05-12T12:49:32.060Z,97408.25
2023-05-12T12:51:58.710Z,97399.66
2023-05-12T12:54:28.824Z,97410.66
2023-05-12T12:56:55.984Z,97406.53
2023-05-12T12:59:23.480Z,97405.22
2023-05-12T13:01:50.351Z,97406.19
2023-05-12T13:04:19.774Z,97409.47
2023-05-12T13:06:46.827Z,97405.41
2023-05-12T13:09:14.027Z,97408.88
2023-05-12T13:11:40.766Z,97405.19
2023-05-12T13:14:08.386Z,97404.84
2023-05-12T13:16:34.988Z,97407.84
2023-05-12T13:19:01.770Z,97397.59
2023-05-12T13:21:28.468Z,97399.44
2023-05-12T13:23:55.095Z,97401.38
2023-05-12T13:26:21.665Z,97403.31
2023-05-12T13:28:48.279Z,97395.28
2023-05-12T13:31:14.992Z,97395.88
2023-05-12T13:33:41.686Z,97399.31
2023-05-12T13:36:08.267Z,97401.09
2023-05-12T13:38:34.930Z,97404.63
2023-05-12T13:41:02.152Z,97412.25
2023-05-12T13:43:28.787Z,97399.47
2023-05-12T13:45:55.387Z,97400.16
2023-05-12T13:48:22.034Z,97401.06
2023-05-12T13:50:50.318Z,97406.31
2023-05-12T13:53:16.852Z,97408.94
2023-05-12T13:55:44.721Z,97405.44
2023-05-12T13:58:11.401Z,97409.16
2023-05-12T14:00:38.026Z,97411.13
2023-05-12T14:03:04.669Z,97409.59
2023-05-12T14:05:31.350Z,97421.50
2023-05-12T14:07:58.059Z,97425.84
2023-05-12T14:10:24.799Z,97432.00
2023-05-12T14:12:51.398Z,97435.28
2023-05-12T14:17:47.465Z,97440.44
2023-05-12T14:20:14.551Z,97442.63
2023-05-12T14:22:42.067Z,97440.59
2023-05-12T14:25:08.934Z,97436.63
2023-05-12T14:27:35.774Z,97446.84
2023-05-12T14:30:02.521Z,97453.41
2023-05-12T14:32:29.196Z,97453.63
2023-05-12T14:34:55.766Z,97453.25
2023-05-12T14:37:22.357Z,97459.41
2023-05-12T14:39:52.787Z,97451.50
2023-05-12T14:42:20.202Z,97451.72
2023-05-12T14:44:46.803Z,97460.47
2023-05-12T14:47:13.362Z,97458.94
2023-05-12T14:49:39.891Z,97456.44
2023-05-12T14:52:06.853Z,97450.81
2023-05-12T14:54:34.051Z,97454.22
2023-05-12T14:57:00.753Z,97459.25
2023-05-12T14:59:29.513Z,97456.94
2023-05-12T15:01:56.198Z,97461.66
2023-05-12T15:04:23.727Z,97464.91
2023-05-12T15:06:53.210Z,97460.41
2023-05-12T15:09:19.799Z,97460.41
2023-05-12T15:11:46.481Z,97460.88
2023-05-12T15:14:13.120Z,97467.34
2023-05-12T15:16:39.789Z,97453.16
2023-05-12T15:19:06.673Z,97461.44
2023-05-12T15:21:34.886Z,97451.00
2023-05-12T15:24:02.846Z,97456.16
2023-05-12T15:26:33.795Z,97457.38
2023-05-12T15:29:01.859Z,97461.81
2023-05-12T15:31:31.083Z,97454.03
2023-05-12T15:33:58.032Z,97454.41
2023-05-12T15:36:24.752Z,97465.13
2023-05-12T15:38:54.373Z,97467.81
2023-05-12T15:41:20.942Z,97460.13
2023-05-12T15:43:48.342Z,97459.75
2023-05-12T15:46:14.970Z,97454.97
2023-05-12T15:48:41.624Z,97454.97
2023-05-12T15:51:08.266Z,97459.28
2023-05-12T15:53:35.046Z,97457.50
2023-05-12T15:56:02.999Z,97453.75
2023-05-12T15:58:29.944Z,97465.25
2023-05-12T16:00:56.842Z,97455.13
2023-05-12T16:03:24.009Z,97464.44
2023-05-12T16:05:51.261Z,97458.44
2023-05-12T16:08:18.076Z,97458.75
2023-05-12T16:10:44.911Z,97462.78
2023-05-12T16:13:11.487Z,97460.75
2023-05-12T16:15:38.074Z,97464.81
2023-05-12T16:18:06.988Z,97468.88
2023-05-12T16:20:35.178Z,97464.44
2023-05-12T16:23:02.798Z,97462.41
2023-05-12T16:25:29.401Z,97458.28
2023-05-12T16:27:56.341Z,97465.09
2023-05-12T16:30:23.240Z,97458.56
2023-05-12T16:32:49.921Z,97460.75
2023-05-12T16:35:16.686Z,97455.88
2023-05-12T16:37:43.269Z,97454.88
2023-05-12T16:40:10.235Z,97452.84
2023-05-12T16:42:37.302Z,97456.59
2023-05-12T16:45:04.234Z,97454.00
2023-05-12T16:47:30.783Z,97461.75
2023-05-12T16:49:59.308Z,97452.47
2023-05-12T16:52:27.070Z,97451.53
2023-05-12T16:54:56.418Z,97453.50
2023-05-12T16:57:24.300Z,97450.25
2023-05-12T16:59:51.121Z,97457.13
2023-05-12T17:02:17.932Z,97450.44
2023-05-12T17:04:44.920Z,97451.81
2023-05-12T17:07:11.576Z,97455.25
2023-05-12T17:09:38.225Z,97456.09
2023-05-12T17:12:06.881Z,97451.09
2023-05-12T17:14:35.287Z,97447.41
2023-05-12T17:17:02.455Z,97450.75
2023-05-12T17:19:29.853Z,97455.66
2023-05-12T17:21:56.630Z,97457.50
2023-05-12T17:24:23.171Z,97449.25
2023-05-12T17:26:49.945Z,97458.28
2023-05-12T17:29:17.126Z,97463.84
2023-05-12T17:31:43.923Z,97453.13
2023-05-12T17:34:10.820Z,97456.25
2023-05-12T17:36:37.656Z,97466.81
2023-05-12T17:39:04.663Z,97459.31
2023-05-12T17:41:31.345Z,97463.47
2023-05-12T17:43:58.121Z,97466.66
2023-05-12T17:46:24.808Z,97467.41
2023-05-12T17:48:51.525Z,97470.66
2023-05-12T17:51:18.263Z,97477.25
2023-05-12T17:53:44.888Z,97469.72
2023-05-12T17:56:11.907Z,97472.91
2023-05-12T17:58:38.648Z,97472.72
2023-05-12T18:01:05.554Z,97475.31
2023-05-12T18:03:32.273Z,97477.19
2023-05-12T18:05:58.950Z,97474.56
2023-05-12T18:08:27.281Z,97476.44
2023-05-12T18:10:54.143Z,97481.00
2023-05-12T18:13:20.687Z,97485.97
2023-05-12T18:15:49.038Z,97483.66
2023-05-12T18:18:15.802Z,97480.84
2023-05-12T18:20:42.598Z,97476.53
2023-05-12T18:23:09.205Z,97483.22
2023-05-12T18:25:35.762Z,97493.00
2023-05-12T18:28:02.410Z,97496.78
2023-05-12T18:30:29.121Z,97495.94
2023-05-12T18:32:56.094Z,97497.63
2023-05-12T18:35:23.316Z,97492.84
2023-05-12T18:37:50.188Z,97496.03
2023-05-12T18:40:17.045Z,97499.59
2023-05-12T18:42:43.963Z,97499.38
2023-05-12T18:45:11.336Z,97497.91
2023-05-12T18:47:38.265Z,97508.13
2023-05-12T18:50:05.590Z,97517.66
2023-05-12T18:52:32.221Z,97511.63
2023-05-12T18:54:59.957Z,97519.16
2023-05-12T18:57:26.664Z,97519.16
2023-05-12T18:59:53.520Z,97520.38
2023-05-12T19:02:20.099Z,97522.78
2023-05-12T19:04:47.461Z,97525.09
2023-05-12T19:07:15.635Z,97529.22
2023-05-12T19:09:43.404Z,97532.63
2023-05-12T19:12:12.143Z,97532.78
2023-05-12T19:14:39.737Z,97540.69
2023-05-12T19:17:07.586Z,97547.03
2023-05-12T19:19:34.874Z,97543.44
2023-05-12T19:22:01.683Z,97549.69
2023-05-12T19:24:28.394Z,97548.59
2023-05-12T19:26:55.077Z,97550.56
2023-05-12T19:29:21.799Z,97551.88
2023-05-12T19:31:48.453Z,97549.03
2023-05-12T19:34:15.145Z,97550.94
2023-05-12T19:36:41.751Z,97555.38
2023-05-12T19:39:08.280Z,97559.31
2023-05-12T19:41:34.928Z,97555.38
2023-05-12T19:44:04.495Z,97560.00
2023-05-12T19:46:31.112Z,97547.56
2023-05-12T19:48:57.883Z,97551.59
2023-05-12T19:51:24.722Z,97543.00
2023-05-12T19:53:51.267Z,97540.47
2023-05-12T19:56:18.915Z,97538.22
2023-05-12T19:58:45.534Z,97534.63
2023-05-12T20:01:12.539Z,97535.06
2023-05-12T20:03:39.287Z,97541.31
2023-05-12T20:06:06.290Z,97533.50
2023-05-12T20:08:32.888Z,97539.00
2023-05-12T20:10:59.719Z,97532.66
2023-05-12T20:13:26.487Z,97534.19
2023-05-12T20:15:53.074Z,97531.88
2023-05-12T20:18:21.592Z,97535.81
2023-05-12T20:20:48.279Z,97527.25
2023-05-12T20:23:15.026Z,97523.22
2023-05-12T20:25:41.613Z,97535.91
2023-05-12T20:28:09.601Z,97529.63
2023-05-12T20:30:39.158Z,97523.47
2023-05-12T20:33:05.888Z,97524.31
2023-05-12T20:35:32.466Z,97519.44
2023-05-12T20:37:59.452Z,97532.81
2023-05-12T20:40:26.170Z,97523.81
2023-05-12T20:42:52.818Z,97528.47
2023-05-12T20:45:20.068Z,97533.44
2023-05-12T20:47:47.211Z,97520.91
2023-05-12T20:50:13.880Z,97523.81
2023-05-12T20:52:41.685Z,97521.81
2023-05-12T20:55:09.649Z,97524.84
2023-05-12T20:57:36.376Z,97526.41
2023-05-12T21:00:04.074Z,97529.63
2023-05-12T21:02:30.773Z,97522.59
2023-05-12T21:04:57.601Z,97525.09
2023-05-12T21:07:24.217Z,97528.16
2023-05-12T21:09:51.019Z,97526.97
2023-05-12T21:12:17.748Z,97522.78
2023-05-12T21:14:45.533Z,97533.88
2023-05-12T21:17:13.546Z,97535.28
2023-05-12T21:19:40.983Z,97529.84
2023-05-12T21:22:09.206Z,97527.53
2023-05-12T21:24:37.555Z,97523.78
2023-05-12T21:27:05.801Z,97526.34
2023-05-12T21:29:33.901Z,97530.25
2023-05-12T21:32:01.063Z,97526.44
2023-05-12T21:34:27.958Z,97527.06
2023-05-12T21:36:54.979Z,97526.53
2023-05-12T21:39:22.132Z,97532.88
2023-05-12T21:41:49.122Z,97536.09
2023-05-12T21:44:16.357Z,97539.13
2023-05-12T21:46:43.123Z,97539.16
2023-05-12T21:49:09.998Z,97533.84
2023-05-12T21:51:39.641Z,97539.72
2023-05-12T21:54:06.364Z,97533.91
2023-05-12T21:56:33.262Z,97541.69
2023-05-12T21:58:59.807Z,97538.34
2023-05-12T22:01:26.447Z,97538.47
2023-05-12T22:03:53.044Z,97532.47
2023-05-12T22:06:20.022Z,97541.84
2023-05-12T22:08:46.571Z,97540.34
2023-05-12T22:11:13.447Z,97541.00
2023-05-12T22:13:40.347Z,97535.72
2023-05-12T22:16:07.156Z,97537.97
2023-05-12T22:18:33.856Z,97534.88
2023-05-12T22:21:00.696Z,97539.31
2023-05-12T22:23:27.268Z,97539.31
2023-05-12T22:25:53.880Z,97539.66
2023-05-12T22:28:20.523Z,97536.97
2023-05-12T22:30:47.063Z,97533.47
2023-05-12T22:33:13.620Z,97529.16
2023-05-12T22:35:40.160Z,97527.97
2023-05-12T22:38:06.874Z,97529.91
2023-05-12T22:40:36.823Z,97531.31
2023-05-12T22:43:03.537Z,97533.25
2023-05-12T22:45:30.081Z,97525.44
2023-05-12T22:47:56.868Z,97526.31
2023-05-12T22:50:23.989Z,97525.44
2023-05-12T22:52:52.961Z,97519.91
2023-05-12T22:55:19.626Z,97525.44
2023-05-12T22:57:46.576Z,97532.84
2023-05-12T23:00:13.999Z,97532.69
2023-05-12T23:02:40.655Z,97526.78
2023-05-12T23:05:07.543Z,97524.13
2023-05-12T23:07:34.079Z,97522.81
2023-05-12T23:10:00.660Z,97522.94
2023-05-12T23:12:27.253Z,97521.47
2023-05-12T23:14:53.880Z,97521.88
2023-05-12T23:17:20.985Z,97511.97
2023-05-12T23:19:47.822Z,97509.00
2023-05-12T23:22:14.364Z,97510.97
2023-05-12T23:24:41.030Z,97514.44
2023-05-12T23:27:07.597Z,97516.03
2023-05-12T23:29:34.647Z,97507.03
2023-05-12T23:32:01.392Z,97503.47
2023-05-12T23:34:28.490Z,97516.03
2023-05-12T23:36:55.091Z,97502.31
2023-05-12T23:39:21.703Z,97503.69
2023-05-12T23:41:48.363Z,97499.19
2023-05-12T23:44:15.144Z,97499.97
2023-05-12T23:46:41.886Z,97501.97
2023-05-12T23:49:08.974Z,97502.84
2023-05-12T23:51:35.876Z,97498.53
2023-05-12T23:54:02.428Z,97509.16
2023-05-12T23:56:29.000Z,97505.06
2023-05-12T23:58:55.545Z,97501.97
